Terminal Aerodrome Forecast
Issued by NWS

Home | Current Version | Previous Version | Text Only | Print | Product List | Glossary On
Versions: 1 2 3 4 5 6 7 8 9 10 11 12
000
FTUS46 KLOX 160548
TAFSBP
TAF
KSBP 160548Z 1606/1706 VRB03KT P6SM BKN200
     FM160900 VRB03KT P6SM OVC012
     FM161700 31006KT P6SM SCT015 BKN100
     FM162100 31012KT P6SM BKN100
     FM170300 31006KT P6SM BKN200=

USA.gov is the U.S. government's official web portal to all federal, state and local government web resources and services.